sensor_id;sensor_type;location;lat;lon;timestamp;P1;durP1;ratioP1;P2;durP2;ratioP2
2039;SDS011;1025;42.686;23.350;2024-01-30T00:00:51;5.53;;;4.30;;
2039;SDS011;1025;42.686;23.350;2024-01-30T00:03:18;4.67;;;3.90;;
2039;SDS011;1025;42.686;23.350;2024-01-30T00:05:46;6.13;;;4.53;;
2039;SDS011;1025;42.686;23.350;2024-01-30T00:08:15;6.60;;;4.77;;
2039;SDS011;1025;42.686;23.350;2024-01-30T00:10:42;4.87;;;4.37;;
2039;SDS011;1025;42.686;23.350;2024-01-30T00:13:08;7.33;;;4.90;;
2039;SDS011;1025;42.686;23.350;2024-01-30T00:15:37;6.03;;;5.10;;
2039;SDS011;1025;42.686;23.350;2024-01-30T00:18:06;6.20;;;4.70;;
2039;SDS011;1025;42.686;23.350;2024-01-30T00:20:33;12.27;;;5.83;;
2039;SDS011;1025;42.686;23.350;2024-01-30T00:23:01;4.30;;;3.90;;
2039;SDS011;1025;42.686;23.350;2024-01-30T00:25:30;5.50;;;4.20;;
2039;SDS011;1025;42.686;23.350;2024-01-30T00:27:58;5.70;;;4.20;;
2039;SDS011;1025;42.686;23.350;2024-01-30T00:30:25;9.07;;;5.67;;
2039;SDS011;1025;42.686;23.350;2024-01-30T00:32:54;11.63;;;5.07;;
2039;SDS011;1025;42.686;23.350;2024-01-30T00:35:23;6.60;;;4.90;;
2039;SDS011;1025;42.686;23.350;2024-01-30T00:37:49;6.10;;;4.60;;
2039;SDS011;1025;42.686;23.350;2024-01-30T00:40:17;6.77;;;4.73;;
2039;SDS011;1025;42.686;23.350;2024-01-30T00:42:47;8.77;;;4.70;;
2039;SDS011;1025;42.686;23.350;2024-01-30T00:45:14;12.00;;;5.80;;
2039;SDS011;1025;42.686;23.350;2024-01-30T00:47:42;3.50;;;3.20;;
2039;SDS011;1025;42.686;23.350;2024-01-30T00:50:11;8.30;;;4.37;;
2039;SDS011;1025;42.686;23.350;2024-01-30T00:52:39;4.80;;;4.37;;
2039;SDS011;1025;42.686;23.350;2024-01-30T00:55:10;4.40;;;4.00;;
2039;SDS011;1025;42.686;23.350;2024-01-30T00:57:38;5.83;;;5.27;;
2039;SDS011;1025;42.686;23.350;2024-01-30T01:00:07;6.93;;;4.53;;
2039;SDS011;1025;42.686;23.350;2024-01-30T01:02:34;4.50;;;4.10;;
2039;SDS011;1025;42.686;23.350;2024-01-30T01:05:01;8.10;;;5.07;;
2039;SDS011;1025;42.686;23.350;2024-01-30T01:07:31;5.90;;;4.60;;
2039;SDS011;1025;42.686;23.350;2024-01-30T01:09:58;5.97;;;4.50;;
2039;SDS011;1025;42.686;23.350;2024-01-30T01:12:25;6.63;;;4.77;;
2039;SDS011;1025;42.686;23.350;2024-01-30T01:14:55;5.63;;;5.00;;
2039;SDS011;1025;42.686;23.350;2024-01-30T01:17:22;8.23;;;5.13;;
2039;SDS011;1025;42.686;23.350;2024-01-30T01:19:49;7.17;;;6.47;;
2039;SDS011;1025;42.686;23.350;2024-01-30T01:22:18;6.50;;;4.43;;
2039;SDS011;1025;42.686;23.350;2024-01-30T01:24:45;5.77;;;5.27;;
2039;SDS011;1025;42.686;23.350;2024-01-30T01:27:11;7.00;;;4.20;;
2039;SDS011;1025;42.686;23.350;2024-01-30T01:29:40;9.03;;;5.63;;
2039;SDS011;1025;42.686;23.350;2024-01-30T01:32:09;5.20;;;4.67;;
2039;SDS011;1025;42.686;23.350;2024-01-30T01:34:36;6.43;;;4.27;;
2039;SDS011;1025;42.686;23.350;2024-01-30T01:37:05;6.22;;;4.70;;
2039;SDS011;1025;42.686;23.350;2024-01-30T01:39:34;6.07;;;5.50;;
2039;SDS011;1025;42.686;23.350;2024-01-30T01:42:01;6.30;;;4.40;;
2039;SDS011;1025;42.686;23.350;2024-01-30T01:44:28;5.00;;;4.60;;
2039;SDS011;1025;42.686;23.350;2024-01-30T01:46:57;7.10;;;5.53;;
2039;SDS011;1025;42.686;23.350;2024-01-30T01:49:27;6.43;;;5.27;;
2039;SDS011;1025;42.686;23.350;2024-01-30T01:51:55;7.90;;;4.50;;
2039;SDS011;1025;42.686;23.350;2024-01-30T01:54:25;10.47;;;5.17;;
2039;SDS011;1025;42.686;23.350;2024-01-30T01:56:53;4.30;;;3.90;;
2039;SDS011;1025;42.686;23.350;2024-01-30T01:59:20;5.83;;;4.60;;
2039;SDS011;1025;42.686;23.350;2024-01-30T02:01:50;9.70;;;6.10;;
2039;SDS011;1025;42.686;23.350;2024-01-30T02:04:18;10.10;;;5.00;;
2039;SDS011;1025;42.686;23.350;2024-01-30T02:06:46;8.13;;;6.00;;
2039;SDS011;1025;42.686;23.350;2024-01-30T02:09:15;12.05;;;5.25;;
2039;SDS011;1025;42.686;23.350;2024-01-30T02:11:44;6.27;;;5.07;;
2039;SDS011;1025;42.686;23.350;2024-01-30T02:14:11;8.43;;;5.47;;
2039;SDS011;1025;42.686;23.350;2024-01-30T02:16:38;7.00;;;5.90;;
2039;SDS011;1025;42.686;23.350;2024-01-30T02:19:07;5.73;;;4.80;;
2039;SDS011;1025;42.686;23.350;2024-01-30T02:21:35;9.00;;;5.33;;
2039;SDS011;1025;42.686;23.350;2024-01-30T02:24:02;10.10;;;6.50;;
2039;SDS011;1025;42.686;23.350;2024-01-30T02:26:32;12.43;;;7.87;;
2039;SDS011;1025;42.686;23.350;2024-01-30T02:28:58;12.03;;;5.90;;
2039;SDS011;1025;42.686;23.350;2024-01-30T02:31:25;6.63;;;5.23;;
2039;SDS011;1025;42.686;23.350;2024-01-30T02:33:55;6.33;;;5.50;;
2039;SDS011;1025;42.686;23.350;2024-01-30T02:36:21;6.80;;;4.60;;
2039;SDS011;1025;42.686;23.350;2024-01-30T02:38:49;5.20;;;4.70;;
2039;SDS011;1025;42.686;23.350;2024-01-30T02:41:18;7.47;;;6.60;;
2039;SDS011;1025;42.686;23.350;2024-01-30T02:43:47;4.33;;;3.93;;
2039;SDS011;1025;42.686;23.350;2024-01-30T02:46:14;4.70;;;4.13;;
2039;SDS011;1025;42.686;23.350;2024-01-30T02:48:41;7.00;;;3.93;;
2039;SDS011;1025;42.686;23.350;2024-01-30T02:51:10;11.93;;;5.87;;
2039;SDS011;1025;42.686;23.350;2024-01-30T02:53:36;6.90;;;4.90;;
2039;SDS011;1025;42.686;23.350;2024-01-30T02:56:05;6.90;;;4.93;;
2039;SDS011;1025;42.686;23.350;2024-01-30T02:58:36;7.23;;;4.93;;
2039;SDS011;1025;42.686;23.350;2024-01-30T03:01:05;8.43;;;5.23;;
2039;SDS011;1025;42.686;23.350;2024-01-30T03:03:32;8.33;;;5.17;;
2039;SDS011;1025;42.686;23.350;2024-01-30T03:06:00;6.03;;;4.10;;
2039;SDS011;1025;42.686;23.350;2024-01-30T03:08:29;4.40;;;3.87;;
2039;SDS011;1025;42.686;23.350;2024-01-30T03:10:55;7.93;;;4.83;;
2039;SDS011;1025;42.686;23.350;2024-01-30T03:13:24;7.50;;;5.23;;
2039;SDS011;1025;42.686;23.350;2024-01-30T03:15:52;5.00;;;4.50;;
2039;SDS011;1025;42.686;23.350;2024-01-30T03:18:21;5.17;;;4.07;;
2039;SDS011;1025;42.686;23.350;2024-01-30T03:20:48;5.33;;;4.13;;
2039;SDS011;1025;42.686;23.350;2024-01-30T03:23:15;4.37;;;3.30;;
2039;SDS011;1025;42.686;23.350;2024-01-30T03:25:43;4.40;;;3.50;;
2039;SDS011;1025;42.686;23.350;2024-01-30T03:28:11;11.40;;;4.20;;
2039;SDS011;1025;42.686;23.350;2024-01-30T03:30:39;5.43;;;4.60;;
2039;SDS011;1025;42.686;23.350;2024-01-30T03:33:08;5.57;;;4.27;;
2039;SDS011;1025;42.686;23.350;2024-01-30T03:35:37;6.50;;;4.13;;
2039;SDS011;1025;42.686;23.350;2024-01-30T03:38:04;6.23;;;4.03;;
2039;SDS011;1025;42.686;23.350;2024-01-30T03:40:31;9.40;;;4.63;;
2039;SDS011;1025;42.686;23.350;2024-01-30T03:42:59;4.97;;;4.13;;
2039;SDS011;1025;42.686;23.350;2024-01-30T03:45:26;9.83;;;4.70;;
2039;SDS011;1025;42.686;23.350;2024-01-30T03:47:54;7.57;;;3.87;;
2039;SDS011;1025;42.686;23.350;2024-01-30T03:50:23;4.10;;;3.67;;
2039;SDS011;1025;42.686;23.350;2024-01-30T03:52:52;4.80;;;3.67;;
2039;SDS011;1025;42.686;23.350;2024-01-30T03:55:19;3.53;;;2.77;;
2039;SDS011;1025;42.686;23.350;2024-01-30T03:57:45;3.50;;;2.97;;
2039;SDS011;1025;42.686;23.350;2024-01-30T04:00:14;12.60;;;4.20;;
2039;SDS011;1025;42.686;23.350;2024-01-30T04:02:42;4.30;;;3.90;;
2039;SDS011;1025;42.686;23.350;2024-01-30T04:05:10;5.90;;;3.43;;
2039;SDS011;1025;42.686;23.350;2024-01-30T04:07:39;5.70;;;4.00;;
2039;SDS011;1025;42.686;23.350;2024-01-30T04:10:06;4.37;;;3.97;;
2039;SDS011;1025;42.686;23.350;2024-01-30T04:12:33;5.20;;;3.53;;
2039;SDS011;1025;42.686;23.350;2024-01-30T04:15:02;9.03;;;4.70;;
2039;SDS011;1025;42.686;23.350;2024-01-30T04:17:29;7.90;;;4.63;;
2039;SDS011;1025;42.686;23.350;2024-01-30T04:19:56;14.00;;;4.10;;
2039;SDS011;1025;42.686;23.350;2024-01-30T04:22:24;4.30;;;3.90;;
2039;SDS011;1025;42.686;23.350;2024-01-30T04:24:51;4.30;;;3.53;;
2039;SDS011;1025;42.686;23.350;2024-01-30T04:27:18;16.03;;;5.47;;
2039;SDS011;1025;42.686;23.350;2024-01-30T04:29:47;6.23;;;4.23;;
2039;SDS011;1025;42.686;23.350;2024-01-30T04:32:14;5.90;;;4.47;;
2039;SDS011;1025;42.686;23.350;2024-01-30T04:34:40;10.30;;;5.57;;
2039;SDS011;1025;42.686;23.350;2024-01-30T04:37:07;16.83;;;6.03;;
2039;SDS011;1025;42.686;23.350;2024-01-30T04:39:35;19.90;;;6.00;;
2039;SDS011;1025;42.686;23.350;2024-01-30T04:42:02;10.50;;;5.43;;
2039;SDS011;1025;42.686;23.350;2024-01-30T04:44:32;6.60;;;4.87;;
2039;SDS011;1025;42.686;23.350;2024-01-30T04:46:58;9.77;;;5.00;;
2039;SDS011;1025;42.686;23.350;2024-01-30T04:49:26;12.13;;;6.30;;
2039;SDS011;1025;42.686;23.350;2024-01-30T04:51:54;11.77;;;4.90;;
2039;SDS011;1025;42.686;23.350;2024-01-30T04:54:21;17.80;;;8.03;;
2039;SDS011;1025;42.686;23.350;2024-01-30T04:56:50;10.30;;;6.73;;
2039;SDS011;1025;42.686;23.350;2024-01-30T04:59:16;9.87;;;4.80;;
2039;SDS011;1025;42.686;23.350;2024-01-30T05:01:43;7.30;;;4.17;;
2039;SDS011;1025;42.686;23.350;2024-01-30T05:04:10;16.40;;;4.40;;
2039;SDS011;1025;42.686;23.350;2024-01-30T05:06:39;9.47;;;4.87;;
2039;SDS011;1025;42.686;23.350;2024-01-30T05:09:06;9.80;;;5.43;;
2039;SDS011;1025;42.686;23.350;2024-01-30T05:11:36;20.57;;;7.23;;
2039;SDS011;1025;42.686;23.350;2024-01-30T05:14:07;22.53;;;6.20;;
2039;SDS011;1025;42.686;23.350;2024-01-30T05:16:34;12.53;;;5.47;;
2039;SDS011;1025;42.686;23.350;2024-01-30T05:19:01;25.53;;;7.20;;
2039;SDS011;1025;42.686;23.350;2024-01-30T05:21:30;18.37;;;7.60;;
2039;SDS011;1025;42.686;23.350;2024-01-30T05:23:57;16.30;;;7.57;;
2039;SDS011;1025;42.686;23.350;2024-01-30T05:26:23;26.53;;;8.80;;
2039;SDS011;1025;42.686;23.350;2024-01-30T05:28:52;16.90;;;9.20;;
2039;SDS011;1025;42.686;23.350;2024-01-30T05:31:20;21.97;;;7.60;;
2039;SDS011;1025;42.686;23.350;2024-01-30T05:33:47;17.93;;;8.97;;
2039;SDS011;1025;42.686;23.350;2024-01-30T05:36:16;14.60;;;8.73;;
2039;SDS011;1025;42.686;23.350;2024-01-30T05:38:43;7.20;;;5.10;;
2039;SDS011;1025;42.686;23.350;2024-01-30T05:41:10;15.77;;;7.07;;
2039;SDS011;1025;42.686;23.350;2024-01-30T05:43:38;9.20;;;6.23;;
2039;SDS011;1025;42.686;23.350;2024-01-30T05:46:06;14.30;;;9.33;;
2039;SDS011;1025;42.686;23.350;2024-01-30T05:48:34;17.07;;;7.13;;
2039;SDS011;1025;42.686;23.350;2024-01-30T05:51:01;8.93;;;6.13;;
2039;SDS011;1025;42.686;23.350;2024-01-30T05:53:29;15.93;;;11.40;;
2039;SDS011;1025;42.686;23.350;2024-01-30T05:55:58;16.40;;;11.13;;
2039;SDS011;1025;42.686;23.350;2024-01-30T05:58:25;10.70;;;6.83;;
2039;SDS011;1025;42.686;23.350;2024-01-30T06:00:52;4.30;;;3.90;;
2039;SDS011;1025;42.686;23.350;2024-01-30T06:03:21;5.10;;;4.00;;
2039;SDS011;1025;42.686;23.350;2024-01-30T06:05:49;5.87;;;3.97;;
2039;SDS011;1025;42.686;23.350;2024-01-30T06:08:15;9.50;;;6.20;;
2039;SDS011;1025;42.686;23.350;2024-01-30T06:10:44;12.53;;;7.20;;
2039;SDS011;1025;42.686;23.350;2024-01-30T06:13:12;16.83;;;9.80;;
2039;SDS011;1025;42.686;23.350;2024-01-30T06:15:39;9.87;;;8.60;;
2039;SDS011;1025;42.686;23.350;2024-01-30T06:18:08;13.53;;;8.13;;
2039;SDS011;1025;42.686;23.350;2024-01-30T06:20:35;17.07;;;8.77;;
2039;SDS011;1025;42.686;23.350;2024-01-30T06:23:03;11.10;;;8.37;;
2039;SDS011;1025;42.686;23.350;2024-01-30T06:25:32;12.00;;;7.10;;
2039;SDS011;1025;42.686;23.350;2024-01-30T06:27:59;18.03;;;8.60;;
2039;SDS011;1025;42.686;23.350;2024-01-30T06:30:26;16.17;;;10.43;;
2039;SDS011;1025;42.686;23.350;2024-01-30T06:32:55;9.20;;;6.70;;
2039;SDS011;1025;42.686;23.350;2024-01-30T06:35:22;13.23;;;7.90;;
2039;SDS011;1025;42.686;23.350;2024-01-30T06:37:48;16.80;;;8.33;;
2039;SDS011;1025;42.686;23.350;2024-01-30T06:40:18;17.73;;;8.30;;
2039;SDS011;1025;42.686;23.350;2024-01-30T06:42:45;15.10;;;8.43;;
2039;SDS011;1025;42.686;23.350;2024-01-30T06:45:12;24.93;;;10.30;;
2039;SDS011;1025;42.686;23.350;2024-01-30T06:47:42;34.93;;;9.33;;
2039;SDS011;1025;42.686;23.350;2024-01-30T06:50:09;22.07;;;9.70;;
2039;SDS011;1025;42.686;23.350;2024-01-30T06:52:36;22.50;;;9.70;;
2039;SDS011;1025;42.686;23.350;2024-01-30T06:55:05;24.00;;;9.13;;
2039;SDS011;1025;42.686;23.350;2024-01-30T06:57:33;12.00;;;8.10;;
2039;SDS011;1025;42.686;23.350;2024-01-30T07:00:00;17.23;;;5.50;;
2039;SDS011;1025;42.686;23.350;2024-01-30T07:02:29;20.65;;;7.45;;
2039;SDS011;1025;42.686;23.350;2024-01-30T07:04:56;8.03;;;5.37;;
2039;SDS011;1025;42.686;23.350;2024-01-30T07:07:23;7.90;;;4.70;;
2039;SDS011;1025;42.686;23.350;2024-01-30T07:09:52;7.77;;;5.63;;
2039;SDS011;1025;42.686;23.350;2024-01-30T07:12:21;5.90;;;3.97;;
2039;SDS011;1025;42.686;23.350;2024-01-30T07:14:51;7.47;;;4.50;;
2039;SDS011;1025;42.686;23.350;2024-01-30T07:17:17;5.90;;;4.37;;
2039;SDS011;1025;42.686;23.350;2024-01-30T07:19:44;5.87;;;4.50;;
2039;SDS011;1025;42.686;23.350;2024-01-30T07:22:11;20.40;;;8.60;;
2039;SDS011;1025;42.686;23.350;2024-01-30T07:24:41;4.50;;;4.10;;
2039;SDS011;1025;42.686;23.350;2024-01-30T07:27:12;5.87;;;4.83;;
2039;SDS011;1025;42.686;23.350;2024-01-30T07:29:41;9.83;;;5.47;;
2039;SDS011;1025;42.686;23.350;2024-01-30T07:32:09;10.27;;;5.70;;
2039;SDS011;1025;42.686;23.350;2024-01-30T07:34:36;8.90;;;5.17;;
2039;SDS011;1025;42.686;23.350;2024-01-30T07:37:05;29.47;;;8.80;;
2039;SDS011;1025;42.686;23.350;2024-01-30T07:39:33;13.83;;;6.53;;
2039;SDS011;1025;42.686;23.350;2024-01-30T07:42:00;5.80;;;3.47;;
2039;SDS011;1025;42.686;23.350;2024-01-30T07:44:29;8.93;;;3.37;;
2039;SDS011;1025;42.686;23.350;2024-01-30T07:46:56;8.40;;;3.37;;
2039;SDS011;1025;42.686;23.350;2024-01-30T07:49:24;8.00;;;4.63;;
2039;SDS011;1025;42.686;23.350;2024-01-30T07:51:53;15.43;;;6.33;;
2039;SDS011;1025;42.686;23.350;2024-01-30T07:54:20;11.90;;;5.67;;
2039;SDS011;1025;42.686;23.350;2024-01-30T07:56:46;6.83;;;4.97;;
2039;SDS011;1025;42.686;23.350;2024-01-30T07:59:15;14.63;;;6.10;;
2039;SDS011;1025;42.686;23.350;2024-01-30T08:01:43;9.47;;;5.47;;
2039;SDS011;1025;42.686;23.350;2024-01-30T08:04:10;6.20;;;4.23;;
2039;SDS011;1025;42.686;23.350;2024-01-30T08:06:40;11.63;;;6.47;;
2039;SDS011;1025;42.686;23.350;2024-01-30T08:09:07;7.30;;;6.00;;
2039;SDS011;1025;42.686;23.350;2024-01-30T08:11:34;7.43;;;4.97;;
2039;SDS011;1025;42.686;23.350;2024-01-30T08:14:03;12.73;;;5.87;;
2039;SDS011;1025;42.686;23.350;2024-01-30T08:16:30;6.70;;;5.50;;
2039;SDS011;1025;42.686;23.350;2024-01-30T08:18:56;15.83;;;6.43;;
2039;SDS011;1025;42.686;23.350;2024-01-30T08:21:25;12.70;;;5.50;;
2039;SDS011;1025;42.686;23.350;2024-01-30T08:23:54;4.70;;;4.20;;
2039;SDS011;1025;42.686;23.350;2024-01-30T08:26:20;9.30;;;5.13;;
2039;SDS011;1025;42.686;23.350;2024-01-30T08:28:47;10.63;;;4.10;;
2039;SDS011;1025;42.686;23.350;2024-01-30T08:31:15;7.20;;;4.80;;
2039;SDS011;1025;42.686;23.350;2024-01-30T08:33:42;4.33;;;3.27;;
2039;SDS011;1025;42.686;23.350;2024-01-30T08:36:11;8.80;;;4.90;;
2039;SDS011;1025;42.686;23.350;2024-01-30T08:38:38;3.53;;;3.23;;
2039;SDS011;1025;42.686;23.350;2024-01-30T08:41:06;6.80;;;4.40;;
2039;SDS011;1025;42.686;23.350;2024-01-30T08:43:35;8.20;;;7.40;;
2039;SDS011;1025;42.686;23.350;2024-01-30T08:46:02;11.73;;;4.60;;
2039;SDS011;1025;42.686;23.350;2024-01-30T08:48:29;17.70;;;7.13;;
2039;SDS011;1025;42.686;23.350;2024-01-30T08:50:59;12.93;;;5.13;;
2039;SDS011;1025;42.686;23.350;2024-01-30T08:53:26;6.50;;;4.20;;
2039;SDS011;1025;42.686;23.350;2024-01-30T08:55:53;5.90;;;3.43;;
2039;SDS011;1025;42.686;23.350;2024-01-30T08:58:23;7.37;;;5.20;;
2039;SDS011;1025;42.686;23.350;2024-01-30T09:00:49;6.33;;;3.00;;
2039;SDS011;1025;42.686;23.350;2024-01-30T09:03:17;12.80;;;5.07;;
2039;SDS011;1025;42.686;23.350;2024-01-30T09:05:46;4.00;;;3.70;;
2039;SDS011;1025;42.686;23.350;2024-01-30T09:08:13;4.87;;;4.27;;
2039;SDS011;1025;42.686;23.350;2024-01-30T09:10:40;12.13;;;5.87;;
2039;SDS011;1025;42.686;23.350;2024-01-30T09:13:07;8.53;;;5.70;;
2039;SDS011;1025;42.686;23.350;2024-01-30T09:15:35;7.83;;;4.70;;
2039;SDS011;1025;42.686;23.350;2024-01-30T09:18:02;7.67;;;4.17;;
2039;SDS011;1025;42.686;23.350;2024-01-30T09:20:29;7.03;;;4.00;;
2039;SDS011;1025;42.686;23.350;2024-01-30T09:22:58;4.47;;;3.40;;
2039;SDS011;1025;42.686;23.350;2024-01-30T09:25:25;7.10;;;3.80;;
2039;SDS011;1025;42.686;23.350;2024-01-30T09:27:51;5.13;;;4.43;;
2039;SDS011;1025;42.686;23.350;2024-01-30T09:30:20;6.20;;;3.33;;
2039;SDS011;1025;42.686;23.350;2024-01-30T09:32:48;8.50;;;3.37;;
2039;SDS011;1025;42.686;23.350;2024-01-30T09:35:15;3.60;;;2.60;;
2039;SDS011;1025;42.686;23.350;2024-01-30T09:37:42;4.07;;;3.50;;
2039;SDS011;1025;42.686;23.350;2024-01-30T09:40:09;7.37;;;4.43;;
2039;SDS011;1025;42.686;23.350;2024-01-30T09:42:36;7.03;;;4.07;;
2039;SDS011;1025;42.686;23.350;2024-01-30T09:45:06;11.70;;;4.33;;
2039;SDS011;1025;42.686;23.350;2024-01-30T09:47:34;5.50;;;4.93;;
2039;SDS011;1025;42.686;23.350;2024-01-30T09:50:08;5.40;;;3.57;;
2039;SDS011;1025;42.686;23.350;2024-01-30T09:52:38;7.97;;;3.73;;
2039;SDS011;1025;42.686;23.350;2024-01-30T09:55:05;3.67;;;3.27;;
2039;SDS011;1025;42.686;23.350;2024-01-30T09:57:35;8.93;;;3.33;;
2039;SDS011;1025;42.686;23.350;2024-01-30T10:00:02;3.90;;;3.50;;
2039;SDS011;1025;42.686;23.350;2024-01-30T10:02:30;3.27;;;3.07;;
2039;SDS011;1025;42.686;23.350;2024-01-30T10:05:00;12.00;;;3.77;;
2039;SDS011;1025;42.686;23.350;2024-01-30T10:07:29;4.97;;;4.10;;
2039;SDS011;1025;42.686;23.350;2024-01-30T10:09:56;4.77;;;4.20;;
2039;SDS011;1025;42.686;23.350;2024-01-30T10:12:25;5.10;;;4.00;;
2039;SDS011;1025;42.686;23.350;2024-01-30T10:14:52;3.00;;;2.80;;
2039;SDS011;1025;42.686;23.350;2024-01-30T10:17:19;4.40;;;2.80;;
2039;SDS011;1025;42.686;23.350;2024-01-30T10:19:48;3.77;;;2.80;;
2039;SDS011;1025;42.686;23.350;2024-01-30T10:22:16;2.27;;;2.07;;
2039;SDS011;1025;42.686;23.350;2024-01-30T10:24:44;5.00;;;3.37;;
2039;SDS011;1025;42.686;23.350;2024-01-30T10:27:13;3.60;;;2.87;;
2039;SDS011;1025;42.686;23.350;2024-01-30T10:29:40;6.53;;;4.00;;
2039;SDS011;1025;42.686;23.350;2024-01-30T10:32:07;7.80;;;3.67;;
2039;SDS011;1025;42.686;23.350;2024-01-30T10:34:36;4.57;;;2.90;;
2039;SDS011;1025;42.686;23.350;2024-01-30T10:37:06;4.40;;;4.00;;
2039;SDS011;1025;42.686;23.350;2024-01-30T10:39:39;6.13;;;3.70;;
2039;SDS011;1025;42.686;23.350;2024-01-30T10:42:10;5.90;;;3.97;;
2039;SDS011;1025;42.686;23.350;2024-01-30T10:44:43;3.60;;;2.50;;
2039;SDS011;1025;42.686;23.350;2024-01-30T10:47:21;3.90;;;1.90;;
2039;SDS011;1025;42.686;23.350;2024-01-30T10:49:52;3.10;;;2.80;;
2039;SDS011;1025;42.686;23.350;2024-01-30T10:52:20;9.07;;;2.43;;
2039;SDS011;1025;42.686;23.350;2024-01-30T10:54:53;2.60;;;2.40;;
2039;SDS011;1025;42.686;23.350;2024-01-30T10:57:21;4.13;;;2.73;;
2039;SDS011;1025;42.686;23.350;2024-01-30T10:59:49;7.10;;;2.70;;
2039;SDS011;1025;42.686;23.350;2024-01-30T11:02:21;4.97;;;3.03;;
2039;SDS011;1025;42.686;23.350;2024-01-30T11:04:49;9.60;;;5.73;;
2039;SDS011;1025;42.686;23.350;2024-01-30T11:07:16;3.23;;;2.83;;
2039;SDS011;1025;42.686;23.350;2024-01-30T11:09:51;3.60;;;3.27;;
2039;SDS011;1025;42.686;23.350;2024-01-30T11:12:23;2.80;;;2.30;;
2039;SDS011;1025;42.686;23.350;2024-01-30T11:15:01;5.47;;;3.50;;
2039;SDS011;1025;42.686;23.350;2024-01-30T11:17:39;2.93;;;2.60;;
2039;SDS011;1025;42.686;23.350;2024-01-30T11:20:09;4.57;;;4.07;;
2039;SDS011;1025;42.686;23.350;2024-01-30T11:22:38;6.00;;;3.43;;
2039;SDS011;1025;42.686;23.350;2024-01-30T11:25:10;5.07;;;3.00;;
2039;SDS011;1025;42.686;23.350;2024-01-30T11:27:39;6.47;;;4.13;;
2039;SDS011;1025;42.686;23.350;2024-01-30T11:30:10;2.90;;;2.40;;
2039;SDS011;1025;42.686;23.350;2024-01-30T11:32:49;3.37;;;3.00;;
2039;SDS011;1025;42.686;23.350;2024-01-30T11:35:24;5.03;;;3.57;;
2039;SDS011;1025;42.686;23.350;2024-01-30T11:37:53;8.17;;;5.50;;
2039;SDS011;1025;42.686;23.350;2024-01-30T11:40:21;4.07;;;3.70;;
2039;SDS011;1025;42.686;23.350;2024-01-30T11:42:49;5.03;;;3.73;;
2039;SDS011;1025;42.686;23.350;2024-01-30T11:45:19;8.80;;;4.30;;
2039;SDS011;1025;42.686;23.350;2024-01-30T11:47:46;10.20;;;4.13;;
2039;SDS011;1025;42.686;23.350;2024-01-30T11:50:13;4.40;;;2.90;;
2039;SDS011;1025;42.686;23.350;2024-01-30T11:52:42;2.47;;;2.30;;
2039;SDS011;1025;42.686;23.350;2024-01-30T11:55:09;3.80;;;2.97;;
2039;SDS011;1025;42.686;23.350;2024-01-30T11:57:36;5.70;;;3.43;;
2039;SDS011;1025;42.686;23.350;2024-01-30T12:00:13;5.33;;;3.70;;
2039;SDS011;1025;42.686;23.350;2024-01-30T12:02:41;3.40;;;3.10;;
2039;SDS011;1025;42.686;23.350;2024-01-30T12:05:10;7.60;;;2.83;;
2039;SDS011;1025;42.686;23.350;2024-01-30T12:07:37;9.13;;;4.83;;
2039;SDS011;1025;42.686;23.350;2024-01-30T12:10:04;16.30;;;5.77;;
2039;SDS011;1025;42.686;23.350;2024-01-30T12:12:35;5.40;;;3.43;;
2039;SDS011;1025;42.686;23.350;2024-01-30T12:15:02;9.90;;;4.30;;
2039;SDS011;1025;42.686;23.350;2024-01-30T12:17:31;4.40;;;3.20;;
2039;SDS011;1025;42.686;23.350;2024-01-30T12:20:05;21.30;;;5.80;;
2039;SDS011;1025;42.686;23.350;2024-01-30T12:22:33;6.83;;;4.40;;
2039;SDS011;1025;42.686;23.350;2024-01-30T12:25:04;4.80;;;3.03;;
2039;SDS011;1025;42.686;23.350;2024-01-30T12:27:33;3.23;;;2.83;;
2039;SDS011;1025;42.686;23.350;2024-01-30T12:30:00;4.83;;;3.23;;
2039;SDS011;1025;42.686;23.350;2024-01-30T12:32:27;4.70;;;3.90;;
2039;SDS011;1025;42.686;23.350;2024-01-30T12:34:58;7.20;;;4.17;;
2039;SDS011;1025;42.686;23.350;2024-01-30T12:37:27;7.00;;;4.40;;
2039;SDS011;1025;42.686;23.350;2024-01-30T12:39:54;12.97;;;4.73;;
2039;SDS011;1025;42.686;23.350;2024-01-30T12:42:21;6.37;;;3.50;;
2039;SDS011;1025;42.686;23.350;2024-01-30T12:44:53;8.17;;;5.30;;
2039;SDS011;1025;42.686;23.350;2024-01-30T12:47:21;6.57;;;4.10;;
2039;SDS011;1025;42.686;23.350;2024-01-30T12:49:48;11.13;;;6.47;;
2039;SDS011;1025;42.686;23.350;2024-01-30T12:52:21;4.97;;;3.50;;
2039;SDS011;1025;42.686;23.350;2024-01-30T12:54:51;3.30;;;3.00;;
2039;SDS011;1025;42.686;23.350;2024-01-30T12:57:18;6.40;;;4.40;;
2039;SDS011;1025;42.686;23.350;2024-01-30T12:59:45;10.13;;;4.60;;
2039;SDS011;1025;42.686;23.350;2024-01-30T13:02:14;7.20;;;5.63;;
2039;SDS011;1025;42.686;23.350;2024-01-30T13:04:42;5.30;;;3.23;;
2039;SDS011;1025;42.686;23.350;2024-01-30T13:07:09;17.50;;;5.07;;
2039;SDS011;1025;42.686;23.350;2024-01-30T13:09:39;5.87;;;4.40;;
2039;SDS011;1025;42.686;23.350;2024-01-30T13:12:06;4.70;;;4.07;;
2039;SDS011;1025;42.686;23.350;2024-01-30T13:14:33;13.30;;;5.43;;
2039;SDS011;1025;42.686;23.350;2024-01-30T13:17:01;10.10;;;4.37;;
2039;SDS011;1025;42.686;23.350;2024-01-30T13:19:29;4.63;;;4.23;;
2039;SDS011;1025;42.686;23.350;2024-01-30T13:21:55;6.23;;;3.60;;
2039;SDS011;1025;42.686;23.350;2024-01-30T13:24:24;3.50;;;3.20;;
2039;SDS011;1025;42.686;23.350;2024-01-30T13:26:55;5.53;;;3.83;;
2039;SDS011;1025;42.686;23.350;2024-01-30T13:29:22;4.83;;;3.53;;
2039;SDS011;1025;42.686;23.350;2024-01-30T13:31:49;7.60;;;6.80;;
2039;SDS011;1025;42.686;23.350;2024-01-30T13:34:17;8.30;;;4.97;;
2039;SDS011;1025;42.686;23.350;2024-01-30T13:36:44;5.63;;;4.43;;
2039;SDS011;1025;42.686;23.350;2024-01-30T13:39:11;3.20;;;2.90;;
2039;SDS011;1025;42.686;23.350;2024-01-30T13:41:40;4.97;;;3.50;;
2039;SDS011;1025;42.686;23.350;2024-01-30T13:44:09;3.80;;;3.50;;
2039;SDS011;1025;42.686;23.350;2024-01-30T13:46:36;4.20;;;3.90;;
2039;SDS011;1025;42.686;23.350;2024-01-30T13:49:06;5.97;;;4.30;;
2039;SDS011;1025;42.686;23.350;2024-01-30T13:51:32;8.20;;;5.00;;
2039;SDS011;1025;42.686;23.350;2024-01-30T13:53:59;4.60;;;4.17;;
2039;SDS011;1025;42.686;23.350;2024-01-30T13:56:28;8.03;;;4.50;;
2039;SDS011;1025;42.686;23.350;2024-01-30T13:58:57;6.90;;;4.43;;
2039;SDS011;1025;42.686;23.350;2024-01-30T14:01:27;5.17;;;4.67;;
2039;SDS011;1025;42.686;23.350;2024-01-30T14:03:54;8.37;;;4.77;;
2039;SDS011;1025;42.686;23.350;2024-01-30T14:06:23;10.73;;;5.90;;
2039;SDS011;1025;42.686;23.350;2024-01-30T14:08:50;6.43;;;4.93;;
2039;SDS011;1025;42.686;23.350;2024-01-30T14:11:16;8.30;;;6.30;;
2039;SDS011;1025;42.686;23.350;2024-01-30T14:13:45;5.70;;;4.57;;
2039;SDS011;1025;42.686;23.350;2024-01-30T14:16:12;5.33;;;4.63;;
2039;SDS011;1025;42.686;23.350;2024-01-30T14:18:40;4.63;;;4.20;;
2039;SDS011;1025;42.686;23.350;2024-01-30T14:21:09;7.80;;;4.60;;
2039;SDS011;1025;42.686;23.350;2024-01-30T14:23:36;5.27;;;4.50;;
2039;SDS011;1025;42.686;23.350;2024-01-30T14:26:03;3.70;;;3.40;;
2039;SDS011;1025;42.686;23.350;2024-01-30T14:28:33;6.20;;;4.33;;
2039;SDS011;1025;42.686;23.350;2024-01-30T14:31:01;12.90;;;6.30;;
2039;SDS011;1025;42.686;23.350;2024-01-30T14:33:29;7.10;;;3.73;;
2039;SDS011;1025;42.686;23.350;2024-01-30T14:35:57;5.07;;;4.63;;
2039;SDS011;1025;42.686;23.350;2024-01-30T14:38:25;4.30;;;3.73;;
2039;SDS011;1025;42.686;23.350;2024-01-30T14:40:53;5.10;;;4.50;;
2039;SDS011;1025;42.686;23.350;2024-01-30T14:43:20;6.93;;;5.20;;
2039;SDS011;1025;42.686;23.350;2024-01-30T14:45:49;8.43;;;4.03;;
2039;SDS011;1025;42.686;23.350;2024-01-30T14:48:19;5.53;;;4.93;;
2039;SDS011;1025;42.686;23.350;2024-01-30T14:50:46;9.60;;;4.87;;
2039;SDS011;1025;42.686;23.350;2024-01-30T14:53:14;5.27;;;4.77;;
2039;SDS011;1025;42.686;23.350;2024-01-30T14:55:43;10.93;;;4.77;;
2039;SDS011;1025;42.686;23.350;2024-01-30T14:58:10;5.40;;;4.90;;
2039;SDS011;1025;42.686;23.350;2024-01-30T15:00:37;8.10;;;5.90;;
2039;SDS011;1025;42.686;23.350;2024-01-30T15:03:06;9.13;;;5.83;;